Wetterdaten: Woche 17.06.19 - 23.06.19 (KW25)
Datum Zeit Temp. Aussen Temp. o. S. +5cm Feuchte Auss Luftdruck Regen Sonnenschein Regendauer Solar Windben Empfang
17.06.2019 00:00 15,9 C 13,6 C 13,1 C 82 % 1021,1 hPa 0,0 l/m 0,00 h 0,00 h 0 W/m 0,0 km/h (0 Bft) 98,15 %
17.06.2019 01:00 14,9 C 12,7 C 12,4 C 85 % 1021,3 hPa 0,0 l/m 0,00 h 0,00 h 0 W/m 0,0 km/h (0 Bft) 97,29 %
17.06.2019 02:00 14,1 C 12,1 C 11,8 C 87 % 1021,3 hPa 0,0 l/m 0,00 h 0,00 h 0 W/m 0,1 km/h (0 Bft) 97,15 %
17.06.2019 03:00 13,4 C 11,8 C 11,4 C 88 % 1021,2 hPa 0,0 l/m 0,00 h 0,00 h 0 W/m 0,5 km/h (0 Bft) 96,51 %
17.06.2019 04:00 13,1 C 11,9 C 11,4 C 91 % 1021,3 hPa 0,0 l/m 0,00 h 0,00 h 0 W/m 0,9 km/h (0 Bft) 96,81 %
17.06.2019 05:00 13,0 C 12,4 C 11,7 C 93 % 1021,2 hPa 0,0 l/m 0,00 h 0,00 h 8 W/m 1,5 km/h (1 Bft) 99,36 %
17.06.2019 06:00 13,4 C 13,6 C 12,8 C 94 % 1021,1 hPa 0,0 l/m 0,00 h 0,00 h 18 W/m 3,1 km/h (1 Bft) 96,68 %
17.06.2019 07:00 14,9 C 15,7 C 14,8 C 95 % 1021,1 hPa 0,0 l/m 0,00 h 0,00 h 32 W/m 10,2 km/h (2 Bft) 97,08 %
17.06.2019 08:00 18,3 C 23,0 C 21,2 C 84 % 1021,2 hPa 0,0 l/m 0,00 h 0,00 h 52 W/m 12,6 km/h (3 Bft) 99,03 %
17.06.2019 09:00 21,8 C 26,7 C 28,2 C 71 % 1021,0 hPa 0,0 l/m 0,90 h 0,00 h 518 W/m 11,8 km/h (2 Bft) 94,94 %
17.06.2019 10:00 24,2 C 29,6 C 31,1 C 61 % 1020,7 hPa 0,0 l/m 1,00 h 0,00 h 721 W/m 15,1 km/h (3 Bft) 96,87 %
17.06.2019 11:00 25,7 C 31,6 C 32,8 C 55 % 1020,2 hPa 0,0 l/m 1,00 h 0,00 h 842 W/m 12,5 km/h (3 Bft) 99,00 %
17.06.2019 12:00 26,6 C 32,2 C 34,5 C 51 % 1019,8 hPa 0,0 l/m 1,00 h 0,00 h 933 W/m 12,1 km/h (2 Bft) 97,83 %
17.06.2019 13:00 27,3 C 32,5 C 35,4 C 48 % 1019,4 hPa 0,0 l/m 1,00 h 0,00 h 965 W/m 12,0 km/h (2 Bft) 95,94 %
17.06.2019 14:00 27,8 C 31,5 C 33,9 C 45 % 1019,0 hPa 0,0 l/m 1,00 h 0,00 h 955 W/m 14,2 km/h (3 Bft) 96,35 %
17.06.2019 15:00 28,1 C 29,9 C 27,6 C 44 % 1018,5 hPa 0,0 l/m 1,00 h 0,00 h 892 W/m 16,5 km/h (3 Bft) 98,72 %
17.06.2019 16:00 28,7 C 28,5 C 27,6 C 43 % 1017,9 hPa 0,0 l/m 1,00 h 0,00 h 800 W/m 13,5 km/h (3 Bft) 97,15 %
17.06.2019 17:00 29,1 C 28,0 C 27,3 C 42 % 1017,5 hPa 0,0 l/m 1,00 h 0,00 h 646 W/m 14,8 km/h (3 Bft) 96,01 %
17.06.2019 18:00 29,2 C 27,7 C 26,5 C 41 % 1017,0 hPa 0,0 l/m 1,00 h 0,00 h 459 W/m 11,7 km/h (2 Bft) 98,75 %
17.06.2019 19:00 28,9 C 27,1 C 25,1 C 42 % 1016,7 hPa 0,0 l/m 0,80 h 0,00 h 246 W/m 9,8 km/h (2 Bft) 97,37 %
17.06.2019 20:00 27,2 C 25,4 C 23,5 C 46 % 1016,5 hPa 0,0 l/m 0,00 h 0,00 h 39 W/m 7,0 km/h (2 Bft) 96,52 %
17.06.2019 21:00 25,4 C 22,3 C 20,4 C 57 % 1016,4 hPa 0,0 l/m 0,00 h 0,00 h 13 W/m 1,5 km/h (1 Bft) 98,58 %
17.06.2019 22:00 22,2 C 18,9 C 17,5 C 68 % 1016,5 hPa 0,0 l/m 0,00 h 0,00 h 0 W/m 0,0 km/h (0 Bft) 96,65 %
17.06.2019 23:00 20,0 C 17,4 C 16,3 C 74 % 1016,3 hPa 0,0 l/m 0,00 h 0,00 h 0 W/m 0,0 km/h (0 Bft) 98,51 %
18.06.2019 00:00 18,7 C 16,3 C 15,4 C 78 % 1016,3 hPa 0,0 l/m 0,00 h 0,00 h 0 W/m 0,0 km/h (0 Bft) 96,79 %
18.06.2019 01:00 17,5 C 15,3 C 14,7 C 81 % 1016,1 hPa 0,0 l/m 0,00 h 0,00 h 0 W/m 0,0 km/h (0 Bft) 97,51 %
18.06.2019 02:00 16,6 C 14,5 C 14,1 C 83 % 1015,8 hPa 0,0 l/m 0,00 h 0,00 h 0 W/m 0,0 km/h (0 Bft) 97,29 %
18.06.2019 03:00 15,9 C 13,8 C 13,4 C 85 % 1015,5 hPa 0,0 l/m 0,00 h 0,00 h 0 W/m 0,0 km/h (0 Bft) 99,00 %
18.06.2019 04:00 15,2 C 13,9 C 13,2 C 88 % 1015,4 hPa 0,0 l/m 0,00 h 0,00 h 0 W/m 0,2 km/h (0 Bft) 97,53 %
18.06.2019 05:00 14,8 C 13,4 C 12,8 C 89 % 1015,2 hPa 0,0 l/m 0,00 h 0,00 h 8 W/m 0,0 km/h (0 Bft) 95,43 %
18.06.2019 06:00 14,8 C 15,3 C 14,1 C 92 % 1015,1 hPa 0,0 l/m 0,00 h 0,00 h 23 W/m 1,2 km/h (1 Bft) 99,41 %
18.06.2019 07:00 16,7 C 17,7 C 16,8 C 89 % 1015,3 hPa 0,0 l/m 0,00 h 0,00 h 49 W/m 10,4 km/h (2 Bft) 96,58 %
18.06.2019 08:00 20,2 C 25,2 C 22,9 C 79 % 1015,3 hPa 0,0 l/m 0,00 h 0,00 h 64 W/m 10,6 km/h (2 Bft) 97,16 %
18.06.2019 09:00 24,0 C 29,1 C 30,2 C 67 % 1015,0 hPa 0,0 l/m 0,90 h 0,00 h 501 W/m 11,3 km/h (2 Bft) 99,71 %
18.06.2019 10:00 26,5 C 31,7 C 32,5 C 56 % 1014,8 hPa 0,0 l/m 1,00 h 0,00 h 662 W/m 10,5 km/h (2 Bft) 96,15 %
18.06.2019 11:00 28,3 C 33,9 C 34,1 C 50 % 1014,4 hPa 0,0 l/m 0,97 h 0,00 h 762 W/m 9,3 km/h (2 Bft) 97,08 %
18.06.2019 12:00 29,0 C 33,6 C 34,2 C 49 % 1014,0 hPa 0,0 l/m 0,93 h 0,00 h 711 W/m 9,9 km/h (2 Bft) 98,31 %
18.06.2019 13:00 29,6 C 33,6 C 34,6 C 46 % 1013,6 hPa 0,0 l/m 0,93 h 0,00 h 778 W/m 9,9 km/h (2 Bft) 96,73 %
18.06.2019 14:00 30,0 C 33,2 C 33,1 C 48 % 1013,3 hPa 0,0 l/m 1,00 h 0,00 h 703 W/m 10,2 km/h (2 Bft) 98,93 %
18.06.2019 15:00 29,8 C 31,5 C 29,2 C 52 % 1012,7 hPa 0,0 l/m 0,93 h 0,00 h 494 W/m 6,6 km/h (2 Bft) 95,95 %
18.06.2019 16:00 29,6 C 30,6 C 28,2 C 53 % 1012,3 hPa 0,0 l/m 0,63 h 0,00 h 390 W/m 6,6 km/h (2 Bft) 97,43 %
18.06.2019 17:00 29,7 C 30,0 C 27,5 C 54 % 1011,9 hPa 0,0 l/m 0,87 h 0,00 h 438 W/m 6,5 km/h (2 Bft) 99,28 %
18.06.2019 18:00 29,1 C 28,7 C 26,5 C 55 % 1011,5 hPa 0,0 l/m 0,77 h 0,00 h 260 W/m 7,2 km/h (2 Bft) 96,83 %
18.06.2019 19:00 28,7 C 28,2 C 25,4 C 56 % 1011,1 hPa 0,0 l/m 0,80 h 0,00 h 243 W/m 6,5 km/h (2 Bft) 96,16 %
18.06.2019 20:00 27,2 C 25,2 C 23,4 C 59 % 1010,9 hPa 0,0 l/m 0,00 h 0,00 h 49 W/m 2,7 km/h (1 Bft) 98,79 %
18.06.2019 21:00 25,4 C 22,8 C 21,3 C 63 % 1010,9 hPa 0,0 l/m 0,00 h 0,00 h 11 W/m 0,4 km/h (0 Bft) 98,51 %
18.06.2019 22:00 23,3 C 20,4 C 19,1 C 68 % 1011,0 hPa 0,0 l/m 0,00 h 0,00 h 0 W/m 0,0 km/h (0 Bft) 95,64 %
18.06.2019 23:00 21,4 C 18,9 C 17,7 C 74 % 1010,7 hPa 0,0 l/m 0,00 h 0,00 h 0 W/m 0,0 km/h (0 Bft) 97,69 %
19.06.2019 00:00 20,0 C 17,5 C 16,7 C 78 % 1010,2 hPa 0,0 l/m 0,00 h 0,00 h 0 W/m 0,0 km/h (0 Bft) 98,49 %
19.06.2019 01:00 18,9 C 17,2 C 16,4 C 82 % 1009,8 hPa 0,0 l/m 0,00 h 0,00 h 0 W/m 0,0 km/h (0 Bft) 98,51 %
19.06.2019 02:00 18,3 C 16,8 C 15,9 C 84 % 1009,4 hPa 0,0 l/m 0,00 h 0,00 h 0 W/m 0,0 km/h (0 Bft) 95,51 %
19.06.2019 03:00 17,8 C 16,4 C 15,8 C 87 % 1009,2 hPa 0,0 l/m 0,00 h 0,00 h 0 W/m 1,7 km/h (1 Bft) 97,80 %
19.06.2019 04:00 17,2 C 15,1 C 14,7 C 87 % 1008,8 hPa 0,0 l/m 0,00 h 0,00 h 0 W/m 0,6 km/h (0 Bft) 99,57 %
19.06.2019 05:00 16,7 C 16,2 C 15,6 C 90 % 1008,6 hPa 0,0 l/m 0,00 h 0,00 h 9 W/m 7,0 km/h (2 Bft) 95,38 %
19.06.2019 06:00 17,4 C 17,5 C 17,0 C 89 % 1008,1 hPa 0,0 l/m 0,00 h 0,00 h 21 W/m 9,8 km/h (2 Bft) 97,49 %
19.06.2019 07:00 19,2 C 19,6 C 18,7 C 87 % 1007,6 hPa 0,0 l/m 0,00 h 0,00 h 37 W/m 13,5 km/h (3 Bft) 98,86 %
19.06.2019 08:00 22,7 C 27,1 C 25,3 C 77 % 1007,1 hPa 0,0 l/m 0,00 h 0,00 h 57 W/m 14,2 km/h (3 Bft) 96,58 %
19.06.2019 09:00 26,1 C 30,5 C 31,8 C 66 % 1006,7 hPa 0,0 l/m 0,87 h 0,00 h 495 W/m 16,4 km/h (3 Bft) 96,44 %
19.06.2019 10:00 28,4 C 32,0 C 32,3 C 60 % 1006,9 hPa 0,0 l/m 0,73 h 0,00 h 560 W/m 14,8 km/h (3 Bft) 97,19 %
19.06.2019 11:00 28,0 C 31,4 C 31,4 C 62 % 1007,2 hPa 0,0 l/m 0,53 h 0,00 h 549 W/m 10,2 km/h (2 Bft) 98,21 %
19.06.2019 12:00 29,2 C 30,7 C 31,0 C 57 % 1007,7 hPa 0,0 l/m 0,50 h 0,00 h 461 W/m 14,8 km/h (3 Bft) 96,58 %
19.06.2019 13:00 27,5 C 27,2 C 26,6 C 63 % 1007,6 hPa 0,0 l/m 0,00 h 0,07 h 296 W/m 15,0 km/h (3 Bft) 97,75 %
19.06.2019 14:00 28,2 C 28,9 C 28,2 C 60 % 1007,5 hPa 0,0 l/m 0,27 h 0,07 h 333 W/m 14,7 km/h (3 Bft) 98,58 %
19.06.2019 15:00 27,3 C 28,2 C 26,8 C 58 % 1007,2 hPa 0,0 l/m 0,20 h 0,00 h 331 W/m 10,6 km/h (2 Bft) 95,61 %
19.06.2019 16:00 29,2 C 29,5 C 28,3 C 50 % 1006,6 hPa 0,0 l/m 0,93 h 0,00 h 714 W/m 17,3 km/h (3 Bft) 98,22 %
19.06.2019 17:00 30,5 C 29,5 C 28,3 C 47 % 1006,1 hPa 0,0 l/m 0,97 h 0,00 h 563 W/m 17,1 km/h (3 Bft) 98,87 %
19.06.2019 18:00 26,4 C 22,5 C 22,4 C 61 % 1006,5 hPa 11,2 l/m 0,00 h 0,53 h 39 W/m 16,8 km/h (3 Bft) 96,43 %
19.06.2019 19:00 18,8 C 17,0 C 17,0 C 92 % 1007,9 hPa 0,6 l/m 0,00 h 0,43 h 49 W/m 9,2 km/h (2 Bft) 98,01 %
19.06.2019 20:00 18,2 C 16,6 C 16,5 C 94 % 1008,7 hPa 0,6 l/m 0,00 h 0,70 h 11 W/m 6,0 km/h (2 Bft) 97,65 %
19.06.2019 21:00 18,0 C 16,6 C 16,4 C 96 % 1008,1 hPa 0,0 l/m 0,00 h 0,00 h 14 W/m 2,1 km/h (1 Bft) 96,51 %
19.06.2019 22:00 17,6 C 16,1 C 16,0 C 96 % 1008,1 hPa 0,0 l/m 0,00 h 0,00 h 0 W/m 1,5 km/h (1 Bft) 99,22 %
19.06.2019 23:00 17,3 C 16,1 C 15,6 C 97 % 1008,6 hPa 0,0 l/m 0,00 h 0,00 h 0 W/m 3,7 km/h (1 Bft) 96,16 %
20.06.2019 00:00 17,3 C 16,1 C 15,6 C 97 % 1008,8 hPa 0,0 l/m 0,00 h 0,23 h 0 W/m 2,8 km/h (1 Bft) 97,79 %
20.06.2019 01:00 17,0 C 15,7 C 15,3 C 97 % 1008,8 hPa 0,0 l/m 0,00 h 0,07 h 0 W/m 1,3 km/h (1 Bft) 99,72 %
20.06.2019 02:00 16,6 C 15,3 C 15,0 C 97 % 1008,9 hPa 0,0 l/m 0,00 h 0,00 h 0 W/m 1,7 km/h (1 Bft) 95,01 %
20.06.2019 03:00 16,6 C 15,6 C 15,0 C 97 % 1009,3 hPa 0,0 l/m 0,00 h 0,00 h 0 W/m 3,5 km/h (1 Bft) 98,65 %
20.06.2019 04:00 16,6 C 15,6 C 15,0 C 97 % 1009,7 hPa 0,0 l/m 0,00 h 0,00 h 0 W/m 7,0 km/h (2 Bft) 98,89 %
20.06.2019 05:00 16,3 C 15,1 C 15,0 C 97 % 1010,1 hPa 0,0 l/m 0,00 h 0,00 h 7 W/m 2,8 km/h (1 Bft) 96,01 %
20.06.2019 06:00 16,4 C 16,0 C 15,0 C 98 % 1010,5 hPa 0,0 l/m 0,00 h 0,00 h 24 W/m 7,7 km/h (2 Bft) 97,79 %
20.06.2019 07:00 16,7 C 16,7 C 15,5 C 97 % 1011,0 hPa 0,0 l/m 0,00 h 0,00 h 68 W/m 13,5 km/h (3 Bft) 97,86 %
20.06.2019 08:00 17,4 C 18,8 C 17,5 C 94 % 1011,2 hPa 0,0 l/m 0,03 h 0,00 h 147 W/m 14,0 km/h (3 Bft) 97,46 %
20.06.2019 09:00 18,2 C 19,7 C 18,9 C 87 % 1011,5 hPa 0,0 l/m 0,33 h 0,00 h 278 W/m 16,4 km/h (3 Bft) 96,29 %
20.06.2019 10:00 19,4 C 22,0 C 21,2 C 82 % 1011,9 hPa 0,0 l/m 0,50 h 0,00 h 390 W/m 14,1 km/h (3 Bft) 98,50 %
20.06.2019 11:00 20,7 C 23,7 C 23,1 C 76 % 1012,0 hPa 0,0 l/m 0,43 h 0,00 h 480 W/m 13,7 km/h (3 Bft) 98,93 %
20.06.2019 12:00 22,0 C 25,8 C 24,9 C 72 % 1012,1 hPa 0,0 l/m 0,90 h 0,00 h 573 W/m 15,7 km/h (3 Bft) 94,37 %
20.06.2019 13:00 22,2 C 22,6 C 22,0 C 73 % 1012,2 hPa 0,0 l/m 0,00 h 0,00 h 236 W/m 9,7 km/h (2 Bft) 98,43 %
20.06.2019 14:00 21,3 C 21,8 C 21,1 C 74 % 1012,3 hPa 0,0 l/m 0,10 h 0,00 h 264 W/m 11,4 km/h (2 Bft) 98,58 %
20.06.2019 15:00 20,1 C 19,0 C 18,6 C 77 % 1012,6 hPa 0,2 l/m 0,00 h 0,53 h 165 W/m 8,7 km/h (2 Bft) 96,66 %
20.06.2019 16:00 19,3 C 18,9 C 18,1 C 80 % 1012,7 hPa 0,0 l/m 0,00 h 0,17 h 191 W/m 8,4 km/h (2 Bft) 97,51 %
20.06.2019 17:00 19,8 C 20,5 C 19,5 C 79 % 1012,7 hPa 0,0 l/m 0,50 h 0,00 h 325 W/m 9,3 km/h (2 Bft) 98,11 %
20.06.2019 18:00 20,3 C 18,8 C 18,2 C 79 % 1013,0 hPa 1,8 l/m 0,00 h 0,37 h 101 W/m 9,2 km/h (2 Bft) 97,23 %
20.06.2019 19:00 18,1 C 15,9 C 15,5 C 90 % 1013,3 hPa 0,2 l/m 0,07 h 0,20 h 93 W/m 0,6 km/h (0 Bft) 97,93 %
20.06.2019 20:00 17,3 C 15,2 C 15,0 C 92 % 1014,0 hPa 0,4 l/m 0,00 h 0,57 h 22 W/m 2,6 km/h (1 Bft) 97,01 %
20.06.2019 21:00 16,7 C 14,8 C 14,7 C 94 % 1014,6 hPa 0,0 l/m 0,00 h 0,00 h 17 W/m 1,2 km/h (1 Bft) 97,80 %
20.06.2019 22:00 16,1 C 14,2 C 13,8 C 94 % 1015,2 hPa 0,0 l/m 0,00 h 0,00 h 0 W/m 0,1 km/h (0 Bft) 96,01 %
20.06.2019 23:00 15,4 C 13,8 C 13,5 C 94 % 1015,7 hPa 0,0 l/m 0,00 h 0,00 h 0 W/m 0,0 km/h (0 Bft) 98,01 %
21.06.2019 00:00 15,0 C 13,0 C 12,9 C 95 % 1016,1 hPa 0,0 l/m 0,00 h 0,00 h 0 W/m 0,0 km/h (0 Bft) 98,45 %
21.06.2019 01:00 14,4 C 12,6 C 12,5 C 95 % 1016,4 hPa 0,0 l/m 0,00 h 0,00 h 0 W/m 0,2 km/h (0 Bft) 96,37 %
21.06.2019 02:00 13,7 C 12,1 C 12,2 C 95 % 1016,6 hPa 0,0 l/m 0,00 h 0,00 h 0 W/m 0,0 km/h (0 Bft) 97,01 %
21.06.2019 03:00 13,0 C 11,2 C 11,3 C 95 % 1016,8 hPa 0,0 l/m 0,00 h 0,00 h 0 W/m 0,0 km/h (0 Bft) 98,01 %
21.06.2019 04:00 12,3 C 10,9 C 10,7 C 96 % 1017,1 hPa 0,0 l/m 0,00 h 0,00 h 0 W/m 0,0 km/h (0 Bft) 98,46 %
21.06.2019 05:00 12,1 C 11,1 C 11,0 C 96 % 1017,4 hPa 0,2 l/m 0,00 h 0,00 h 8 W/m 0,0 km/h (0 Bft) 94,57 %
21.06.2019 06:00 11,9 C 11,0 C 10,7 C 97 % 1017,8 hPa 0,0 l/m 0,00 h 0,00 h 21 W/m 0,0 km/h (0 Bft) 97,16 %
21.06.2019 07:00 11,9 C 11,6 C 10,9 C 97 % 1018,2 hPa 0,0 l/m 0,00 h 0,00 h 32 W/m 4,0 km/h (1 Bft) 97,51 %
21.06.2019 08:00 13,7 C 18,6 C 15,5 C 95 % 1018,6 hPa 0,0 l/m 0,00 h 0,00 h 47 W/m 9,6 km/h (2 Bft) 95,75 %
21.06.2019 09:00 16,6 C 22,4 C 22,7 C 81 % 1018,8 hPa 0,0 l/m 0,87 h 0,00 h 522 W/m 14,4 km/h (3 Bft) 97,01 %
21.06.2019 10:00 18,3 C 23,6 C 23,6 C 73 % 1019,0 hPa 0,0 l/m 1,00 h 0,00 h 741 W/m 12,5 km/h (3 Bft) 98,51 %
21.06.2019 11:00 19,6 C 25,9 C 25,8 C 67 % 1019,3 hPa 0,0 l/m 1,00 h 0,00 h 913 W/m 14,2 km/h (3 Bft) 98,00 %
21.06.2019 12:00 21,1 C 26,7 C 26,9 C 61 % 1019,4 hPa 0,0 l/m 0,77 h 0,00 h 792 W/m 10,3 km/h (2 Bft) 97,49 %
21.06.2019 13:00 22,4 C 27,6 C 28,7 C 60 % 1019,4 hPa 0,0 l/m 0,73 h 0,00 h 858 W/m 10,2 km/h (2 Bft) 98,22 %
21.06.2019 14:00 23,3 C 26,7 C 27,3 C 57 % 1019,4 hPa 0,0 l/m 0,53 h 0,00 h 662 W/m 9,0 km/h (2 Bft) 96,08 %
21.06.2019 15:00 23,0 C 25,0 C 22,2 C 57 % 1019,5 hPa 0,0 l/m 0,67 h 0,00 h 677 W/m 9,0 km/h (2 Bft) 97,87 %
21.06.2019 16:00 22,6 C 22,9 C 21,2 C 56 % 1019,4 hPa 0,0 l/m 0,30 h 0,00 h 393 W/m 5,3 km/h (1 Bft) 99,43 %
21.06.2019 17:00 22,5 C 22,8 C 20,9 C 60 % 1019,3 hPa 0,0 l/m 0,30 h 0,00 h 348 W/m 6,5 km/h (2 Bft) 94,38 %
21.06.2019 18:00 22,9 C 22,4 C 20,9 C 59 % 1019,5 hPa 0,0 l/m 0,67 h 0,00 h 336 W/m 9,8 km/h (2 Bft) 98,67 %
21.06.2019 19:00 21,6 C 20,4 C 18,9 C 64 % 1019,8 hPa 0,0 l/m 0,50 h 0,00 h 173 W/m 7,0 km/h (2 Bft) 98,86 %
21.06.2019 20:00 20,0 C 17,9 C 17,2 C 68 % 1019,9 hPa 0,0 l/m 0,00 h 0,00 h 43 W/m 4,1 km/h (1 Bft) 95,51 %
21.06.2019 21:00 18,2 C 16,2 C 15,7 C 73 % 1020,5 hPa 0,0 l/m 0,00 h 0,00 h 15 W/m 2,8 km/h (1 Bft) 98,26 %
21.06.2019 22:00 16,6 C 14,3 C 14,1 C 73 % 1021,2 hPa 0,0 l/m 0,00 h 0,00 h 0 W/m 2,1 km/h (1 Bft) 97,86 %
21.06.2019 23:00 15,2 C 13,1 C 12,9 C 77 % 1021,7 hPa 0,0 l/m 0,00 h 0,00 h 0 W/m 0,1 km/h (0 Bft) 97,72 %
22.06.2019 00:00 14,2 C 12,2 C 12,1 C 79 % 1021,9 hPa 0,0 l/m 0,00 h 0,00 h 0 W/m 0,0 km/h (0 Bft) 98,38 %
22.06.2019 01:00 13,3 C 11,4 C 11,2 C 82 % 1022,0 hPa 0,0 l/m 0,00 h 0,00 h 0 W/m 0,0 km/h (0 Bft) 95,44 %
22.06.2019 02:00 12,6 C 10,8 C 10,3 C 84 % 1022,2 hPa 0,0 l/m 0,00 h 0,00 h 0 W/m 0,0 km/h (0 Bft) 96,94 %
22.06.2019 03:00 11,9 C 10,1 C 9,9 C 86 % 1022,0 hPa 0,0 l/m 0,00 h 0,00 h 0 W/m 0,0 km/h (0 Bft) 98,43 %
22.06.2019 04:00 11,3 C 9,6 C 9,4 C 88 % 1021,7 hPa 0,0 l/m 0,00 h 0,00 h 0 W/m 0,0 km/h (0 Bft) 99,56 %
22.06.2019 05:00 10,9 C 9,4 C 9,4 C 90 % 1021,5 hPa 0,0 l/m 0,00 h 0,00 h 9 W/m 0,0 km/h (0 Bft) 94,66 %
22.06.2019 06:00 11,2 C 11,5 C 10,7 C 93 % 1021,3 hPa 0,0 l/m 0,00 h 0,00 h 28 W/m 0,0 km/h (0 Bft) 98,16 %
22.06.2019 07:00 12,8 C 14,2 C 12,8 C 96 % 1021,4 hPa 0,0 l/m 0,00 h 0,00 h 55 W/m 2,3 km/h (1 Bft) 97,53 %
22.06.2019 08:00 15,7 C 22,4 C 19,6 C 94 % 1021,2 hPa 0,0 l/m 0,00 h 0,00 h 87 W/m 6,9 km/h (2 Bft) 97,15 %
22.06.2019 09:00 20,0 C 25,9 C 27,1 C 77 % 1021,3 hPa 0,0 l/m 0,87 h 0,00 h 467 W/m 9,4 km/h (2 Bft) 98,58 %
22.06.2019 10:00 22,5 C 28,5 C 30,0 C 68 % 1021,2 hPa 0,0 l/m 1,00 h 0,00 h 691 W/m 10,8 km/h (2 Bft) 97,87 %
22.06.2019 11:00 24,0 C 29,9 C 31,3 C 63 % 1020,9 hPa 0,0 l/m 1,00 h 0,00 h 830 W/m 11,9 km/h (2 Bft) 97,57 %
22.06.2019 12:00 25,8 C 32,1 C 33,6 C 59 % 1020,6 hPa 0,0 l/m 0,97 h 0,00 h 906 W/m 11,3 km/h (2 Bft) 96,47 %
22.06.2019 13:00 26,6 C 31,3 C 33,7 C 56 % 1020,2 hPa 0,0 l/m 0,93 h 0,00 h 906 W/m 11,0 km/h (2 Bft) 98,65 %
22.06.2019 14:00 27,4 C 31,2 C 33,5 C 54 % 1019,6 hPa 0,0 l/m 1,00 h 0,00 h 955 W/m 11,7 km/h (2 Bft) 98,72 %
22.06.2019 15:00 27,0 C 28,7 C 26,2 C 55 % 1019,0 hPa 0,0 l/m 0,87 h 0,00 h 762 W/m 10,3 km/h (2 Bft) 94,52 %
22.06.2019 16:00 27,9 C 27,8 C 26,2 C 53 % 1018,7 hPa 0,0 l/m 0,83 h 0,00 h 702 W/m 8,6 km/h (2 Bft) 99,65 %
22.06.2019 17:00 27,6 C 26,8 C 25,0 C 54 % 1018,2 hPa 0,0 l/m 0,67 h 0,00 h 456 W/m 7,8 km/h (2 Bft) 98,51 %
22.06.2019 18:00 26,2 C 25,1 C 23,4 C 57 % 1017,8 hPa 0,0 l/m 0,63 h 0,00 h 306 W/m 8,4 km/h (2 Bft) 95,99 %
22.06.2019 19:00 25,5 C 23,7 C 22,1 C 59 % 1017,9 hPa 0,0 l/m 0,27 h 0,00 h 128 W/m 6,9 km/h (2 Bft) 98,30 %
22.06.2019 20:00 23,6 C 21,9 C 20,5 C 65 % 1017,8 hPa 0,0 l/m 0,00 h 0,00 h 51 W/m 5,3 km/h (1 Bft) 97,39 %
22.06.2019 21:00 22,3 C 20,4 C 19,5 C 69 % 1017,8 hPa 0,0 l/m 0,07 h 0,00 h 20 W/m 4,9 km/h (1 Bft) 97,12 %
22.06.2019 22:00 20,9 C 18,8 C 18,0 C 72 % 1018,1 hPa 0,0 l/m 0,00 h 0,00 h 0 W/m 2,9 km/h (1 Bft) 97,66 %
22.06.2019 23:00 19,8 C 18,1 C 17,3 C 75 % 1018,4 hPa 0,0 l/m 0,00 h 0,00 h 0 W/m 2,5 km/h (1 Bft) 96,23 %
23.06.2019 00:00 19,0 C 17,7 C 16,8 C 79 % 1018,6 hPa 0,0 l/m 0,00 h 0,00 h 0 W/m 0,0 km/h (0 Bft) 98,56 %
23.06.2019 01:00 18,8 C 17,4 C 16,7 C 81 % 1018,5 hPa 0,0 l/m 0,00 h 0,00 h 0 W/m 0,6 km/h (0 Bft) 98,36 %
23.06.2019 02:00 18,0 C 15,8 C 15,3 C 82 % 1018,6 hPa 0,0 l/m 0,00 h 0,00 h 0 W/m 0,0 km/h (0 Bft) 95,20 %
23.06.2019 03:00 17,0 C 15,0 C 14,4 C 85 % 1018,7 hPa 0,0 l/m 0,00 h 0,00 h 0 W/m 0,0 km/h (0 Bft) 99,79 %
23.06.2019 04:00 16,2 C 14,9 C 14,4 C 88 % 1018,5 hPa 0,0 l/m 0,00 h 0,00 h 0 W/m 1,2 km/h (1 Bft) 97,89 %
23.06.2019 05:00 15,9 C 14,9 C 14,0 C 90 % 1018,7 hPa 0,0 l/m 0,00 h 0,00 h 9 W/m 0,2 km/h (0 Bft) 96,01 %
23.06.2019 06:00 15,8 C 15,5 C 14,4 C 91 % 1018,8 hPa 0,0 l/m 0,00 h 0,00 h 22 W/m 0,4 km/h (0 Bft) 98,81 %
23.06.2019 07:00 16,5 C 17,2 C 15,6 C 93 % 1018,9 hPa 0,0 l/m 0,00 h 0,00 h 39 W/m 2,5 km/h (1 Bft) 96,28 %
23.06.2019 08:00 19,3 C 27,2 C 23,3 C 90 % 1018,8 hPa 0,0 l/m 0,00 h 0,00 h 57 W/m 4,9 km/h (1 Bft) 97,93 %
23.06.2019 09:00 23,8 C 30,3 C 33,0 C 71 % 1019,0 hPa 0,0 l/m 0,87 h 0,00 h 500 W/m 7,4 km/h (2 Bft) 98,93 %
23.06.2019 10:00 26,9 C 34,5 C 35,9 C 62 % 1018,9 hPa 0,0 l/m 1,00 h 0,00 h 708 W/m 6,9 km/h (2 Bft) 97,01 %
23.06.2019 11:00 28,6 C 34,5 C 37,4 C 56 % 1018,6 hPa 0,0 l/m 1,00 h 0,00 h 829 W/m 10,5 km/h (2 Bft) 97,22 %
23.06.2019 12:00 29,7 C 34,9 C 38,7 C 53 % 1018,1 hPa 0,0 l/m 0,97 h 0,00 h 905 W/m 15,5 km/h (3 Bft) 97,06 %
23.06.2019 13:00 29,7 C 31,7 C 33,9 C 51 % 1017,9 hPa 0,0 l/m 0,63 h 0,00 h 697 W/m 19,7 km/h (3 Bft) 97,96 %
23.06.2019 14:00 29,6 C 31,7 C 32,7 C 52 % 1017,6 hPa 0,0 l/m 0,73 h 0,00 h 677 W/m 15,7 km/h (3 Bft) 98,43 %
23.06.2019 15:00 30,6 C 32,3 C 30,2 C 48 % 1017,3 hPa 0,0 l/m 0,93 h 0,00 h 824 W/m 15,8 km/h (3 Bft) 96,03 %
23.06.2019 16:00 31,4 C 31,0 C 30,1 C 41 % 1017,0 hPa 0,0 l/m 1,00 h 0,00 h 767 W/m 17,3 km/h (3 Bft) 98,15 %
23.06.2019 17:00 32,0 C 31,0 C 29,7 C 40 % 1016,9 hPa 0,0 l/m 1,00 h 0,00 h 576 W/m 16,3 km/h (3 Bft) 97,51 %
23.06.2019 18:00 31,7 C 30,4 C 28,6 C 41 % 1016,7 hPa 0,0 l/m 1,00 h 0,00 h 328 W/m 13,3 km/h (3 Bft) 98,52 %
23.06.2019 19:00 30,5 C 28,9 C 27,4 C 44 % 1016,6 hPa 0,0 l/m 0,37 h 0,00 h 161 W/m 9,5 km/h (2 Bft) 97,51 %
23.06.2019 20:00 28,7 C 26,8 C 24,0 C 51 % 1016,6 hPa 0,0 l/m 0,00 h 0,00 h 57 W/m 5,7 km/h (1 Bft) 95,94 %
23.06.2019 21:00 26,7 C 23,7 C 21,2 C 59 % 1017,0 hPa 0,0 l/m 0,00 h 0,00 h 16 W/m 0,1 km/h (0 Bft) 99,15 %
23.06.2019 22:00 24,1 C 21,2 C 19,7 C 63 % 1017,4 hPa 0,0 l/m 0,00 h 0,00 h 0 W/m 1,8 km/h (1 Bft) 96,51 %
23.06.2019 23:00 22,4 C 19,9 C 18,8 C 67 % 1017,9 hPa 0,0 l/m 0,00 h 0,00 h 0 W/m 0,2 km/h (0 Bft) 96,23 %
Min-Datum _ 22.06.19 22.06.19 22.06.19 17.06.19 19.06.19 - - - - 17.06.19 17.06.19
_ Min-Zeit 05:36 03:50 03:46 18:30 18:14 - - - - 00:00 14:04
Minimum _ 10,8 C 9,4 C 9,4 C 39 % 1005,5 hPa - - - - 0,0 km/h (0 Bft) 70,21 %
Max-Datum _ 23.06.19 18.06.19 23.06.19 20.06.19 22.06.19 19.06.19 17.06.19 19.06.19 21.06.19 19.06.19 17.06.19
_ Max-Zeit 17:54 12:22 12:32 06:16 02:18 18:46 12:08 13:02 13:44 16:50 00:15
Maximum _ 32,3 C 37,2 C 41,1 C 98 % 1022,4 hPa 11,2 l/m 0,07 h 0,03 h 1158 W/m 35,4 km/h
O-SO (5 Bft)
100,00 %
Durchschnitt _ 21,1 C 21,6 C 21,0 C 73 % 1015,7 hPa #15,2 l/m #54:14 h #3:56 h 364 W/m 6,7 km/h (2 Bft) 97,47 %
© 2019 W. Hausmann